Okaya, Japan
Current Conditions -  °F | °C
As of 9:00 PM on Thursday 20 Nov 2014 (Local Time) from RJNT Reporting Station
Few Clouds Few Clouds  
Wind Chill: 45°   Ceiling: Unl
Heat Index: 45°   Visibility: 6mi
Dew Point: 37°   Wind: 3mph
Humidity: 76%   Direction: 180°S
Pressure: 30.27"   Gusts: NA
Location:  36.06°N, 138.06°E
Report Text: RJNT 201200Z 18003KT 140V210 9999 FEW030 07/03 Q1025
Loading
Personal Weather Stations






























Interactive Weather Map New forecast layout! Learn more

10-Day Weather Forecast

Advertisements
Track Severe Weather on mobile